sensor_id;sensor_type;location;lat;lon;timestamp;P1;durP1;ratioP1;P2;durP2;ratioP2
21681;SDS011;11002;48.256;10.084;2023-01-29T00:02:06;11.00;;;7.88;;
21681;SDS011;11002;48.256;10.084;2023-01-29T00:04:34;11.32;;;8.10;;
21681;SDS011;11002;48.256;10.084;2023-01-29T00:07:01;10.85;;;8.07;;
21681;SDS011;11002;48.256;10.084;2023-01-29T00:09:28;11.57;;;7.75;;
21681;SDS011;11002;48.256;10.084;2023-01-29T00:11:58;10.25;;;7.32;;
21681;SDS011;11002;48.256;10.084;2023-01-29T00:14:25;12.02;;;7.70;;
21681;SDS011;11002;48.256;10.084;2023-01-29T00:16:53;9.93;;;7.25;;
21681;SDS011;11002;48.256;10.084;2023-01-29T00:19:20;9.80;;;7.25;;
21681;SDS011;11002;48.256;10.084;2023-01-29T00:21:47;9.95;;;7.70;;
21681;SDS011;11002;48.256;10.084;2023-01-29T00:24:15;10.30;;;7.47;;
21681;SDS011;11002;48.256;10.084;2023-01-29T00:26:42;12.10;;;7.32;;
21681;SDS011;11002;48.256;10.084;2023-01-29T00:29:11;9.98;;;6.97;;
21681;SDS011;11002;48.256;10.084;2023-01-29T00:31:39;9.82;;;7.10;;
21681;SDS011;11002;48.256;10.084;2023-01-29T00:34:09;13.18;;;6.93;;
21681;SDS011;11002;48.256;10.084;2023-01-29T00:36:36;9.18;;;7.25;;
21681;SDS011;11002;48.256;10.084;2023-01-29T00:39:04;7.70;;;6.53;;
21681;SDS011;11002;48.256;10.084;2023-01-29T00:41:35;8.20;;;6.38;;
21681;SDS011;11002;48.256;10.084;2023-01-29T00:44:22;10.18;;;7.15;;
21681;SDS011;11002;48.256;10.084;2023-01-29T00:47:07;10.25;;;6.72;;
21681;SDS011;11002;48.256;10.084;2023-01-29T00:49:54;8.90;;;6.55;;
21681;SDS011;11002;48.256;10.084;2023-01-29T00:52:22;8.07;;;6.35;;
21681;SDS011;11002;48.256;10.084;2023-01-29T00:54:50;9.18;;;7.13;;
21681;SDS011;11002;48.256;10.084;2023-01-29T00:57:18;9.25;;;6.85;;
21681;SDS011;11002;48.256;10.084;2023-01-29T00:59:47;9.02;;;6.80;;
21681;SDS011;11002;48.256;10.084;2023-01-29T01:02:15;9.73;;;7.40;;
21681;SDS011;11002;48.256;10.084;2023-01-29T01:05:02;9.23;;;6.70;;
21681;SDS011;11002;48.256;10.084;2023-01-29T01:07:32;8.52;;;6.10;;
21681;SDS011;11002;48.256;10.084;2023-01-29T01:09:59;9.73;;;7.07;;
21681;SDS011;11002;48.256;10.084;2023-01-29T01:12:44;8.65;;;6.55;;
21681;SDS011;11002;48.256;10.084;2023-01-29T01:15:13;10.27;;;6.78;;
21681;SDS011;11002;48.256;10.084;2023-01-29T01:17:40;10.65;;;7.43;;
21681;SDS011;11002;48.256;10.084;2023-01-29T01:20:09;9.45;;;6.78;;
21681;SDS011;11002;48.256;10.084;2023-01-29T01:22:37;9.35;;;6.97;;
21681;SDS011;11002;48.256;10.084;2023-01-29T01:25:04;8.15;;;6.75;;
21681;SDS011;11002;48.256;10.084;2023-01-29T01:27:32;10.10;;;6.57;;
21681;SDS011;11002;48.256;10.084;2023-01-29T01:30:02;9.18;;;6.43;;
21681;SDS011;11002;48.256;10.084;2023-01-29T01:32:32;10.32;;;6.85;;
21681;SDS011;11002;48.256;10.084;2023-01-29T01:34:59;8.18;;;6.80;;
21681;SDS011;11002;48.256;10.084;2023-01-29T01:37:27;11.00;;;6.72;;
21681;SDS011;11002;48.256;10.084;2023-01-29T01:39:54;8.13;;;6.25;;
21681;SDS011;11002;48.256;10.084;2023-01-29T01:42:26;8.43;;;6.22;;
21681;SDS011;11002;48.256;10.084;2023-01-29T01:44:56;8.25;;;5.97;;
21681;SDS011;11002;48.256;10.084;2023-01-29T01:47:27;8.95;;;5.88;;
21681;SDS011;11002;48.256;10.084;2023-01-29T01:49:59;7.72;;;5.90;;
21681;SDS011;11002;48.256;10.084;2023-01-29T01:52:31;8.82;;;6.00;;
21681;SDS011;11002;48.256;10.084;2023-01-29T01:54:59;8.05;;;6.28;;
21681;SDS011;11002;48.256;10.084;2023-01-29T01:57:27;8.23;;;6.05;;
21681;SDS011;11002;48.256;10.084;2023-01-29T01:59:58;9.20;;;6.78;;
21681;SDS011;11002;48.256;10.084;2023-01-29T02:02:39;7.80;;;6.03;;
21681;SDS011;11002;48.256;10.084;2023-01-29T02:05:28;8.10;;;6.35;;
21681;SDS011;11002;48.256;10.084;2023-01-29T02:08:15;9.30;;;6.47;;
21681;SDS011;11002;48.256;10.084;2023-01-29T02:11:05;9.40;;;6.93;;
21681;SDS011;11002;48.256;10.084;2023-01-29T02:13:33;10.65;;;7.20;;
21681;SDS011;11002;48.256;10.084;2023-01-29T02:16:01;13.02;;;6.63;;
21681;SDS011;11002;48.256;10.084;2023-01-29T02:18:28;10.70;;;7.07;;
21681;SDS011;11002;48.256;10.084;2023-01-29T02:21:10;9.65;;;7.45;;
21681;SDS011;11002;48.256;10.084;2023-01-29T02:24:06;9.68;;;7.03;;
21681;SDS011;11002;48.256;10.084;2023-01-29T02:26:52;12.00;;;7.07;;
21681;SDS011;11002;48.256;10.084;2023-01-29T02:29:31;11.18;;;6.97;;
21681;SDS011;11002;48.256;10.084;2023-01-29T02:32:13;9.15;;;6.50;;
21681;SDS011;11002;48.256;10.084;2023-01-29T02:34:46;9.32;;;7.05;;
21681;SDS011;11002;48.256;10.084;2023-01-29T02:37:40;10.57;;;7.57;;
21681;SDS011;11002;48.256;10.084;2023-01-29T02:40:16;10.45;;;7.20;;
21681;SDS011;11002;48.256;10.084;2023-01-29T02:42:55;9.65;;;6.72;;
21681;SDS011;11002;48.256;10.084;2023-01-29T02:45:30;12.77;;;7.40;;
21681;SDS011;11002;48.256;10.084;2023-01-29T02:48:00;11.95;;;7.70;;
21681;SDS011;11002;48.256;10.084;2023-01-29T02:50:30;12.27;;;7.47;;
21681;SDS011;11002;48.256;10.084;2023-01-29T02:53:03;13.25;;;8.07;;
21681;SDS011;11002;48.256;10.084;2023-01-29T02:55:37;11.95;;;6.30;;
21681;SDS011;11002;48.256;10.084;2023-01-29T02:58:10;7.80;;;5.75;;
21681;SDS011;11002;48.256;10.084;2023-01-29T03:00:43;8.63;;;5.40;;
21681;SDS011;11002;48.256;10.084;2023-01-29T03:03:14;10.52;;;7.80;;
21681;SDS011;11002;48.256;10.084;2023-01-29T03:05:47;13.30;;;8.07;;
21681;SDS011;11002;48.256;10.084;2023-01-29T03:08:21;11.02;;;7.63;;
21681;SDS011;11002;48.256;10.084;2023-01-29T03:11:03;14.23;;;8.30;;
21681;SDS011;11002;48.256;10.084;2023-01-29T03:13:34;12.27;;;8.40;;
21681;SDS011;11002;48.256;10.084;2023-01-29T03:16:08;11.13;;;8.45;;
21681;SDS011;11002;48.256;10.084;2023-01-29T03:18:46;11.95;;;8.40;;
21681;SDS011;11002;48.256;10.084;2023-01-29T03:21:20;10.95;;;7.78;;
21681;SDS011;11002;48.256;10.084;2023-01-29T03:24:10;10.85;;;8.05;;
21681;SDS011;11002;48.256;10.084;2023-01-29T03:27:00;11.13;;;7.85;;
21681;SDS011;11002;48.256;10.084;2023-01-29T03:29:47;10.23;;;7.88;;
21681;SDS011;11002;48.256;10.084;2023-01-29T03:33:04;11.25;;;7.40;;
21681;SDS011;11002;48.256;10.084;2023-01-29T03:35:35;9.48;;;6.88;;
21681;SDS011;11002;48.256;10.084;2023-01-29T03:38:13;11.63;;;8.45;;
21681;SDS011;11002;48.256;10.084;2023-01-29T03:40:43;10.90;;;8.23;;
21681;SDS011;11002;48.256;10.084;2023-01-29T03:43:18;10.63;;;7.70;;
21681;SDS011;11002;48.256;10.084;2023-01-29T03:45:58;11.40;;;8.70;;
21681;SDS011;11002;48.256;10.084;2023-01-29T03:48:32;9.43;;;6.22;;
21681;SDS011;11002;48.256;10.084;2023-01-29T03:51:10;10.80;;;7.45;;
21681;SDS011;11002;48.256;10.084;2023-01-29T03:56:24;12.40;;;8.52;;
21681;SDS011;11002;48.256;10.084;2023-01-29T03:59:00;12.68;;;8.30;;
21681;SDS011;11002;48.256;10.084;2023-01-29T04:01:54;15.27;;;8.60;;
21681;SDS011;11002;48.256;10.084;2023-01-29T04:04:27;12.45;;;8.02;;
21681;SDS011;11002;48.256;10.084;2023-01-29T04:06:59;12.65;;;8.32;;
21681;SDS011;11002;48.256;10.084;2023-01-29T04:09:32;13.43;;;8.60;;
21681;SDS011;11002;48.256;10.084;2023-01-29T04:12:04;12.23;;;8.75;;
21681;SDS011;11002;48.256;10.084;2023-01-29T04:14:36;11.40;;;8.23;;
21681;SDS011;11002;48.256;10.084;2023-01-29T04:17:06;11.93;;;8.45;;
21681;SDS011;11002;48.256;10.084;2023-01-29T04:19:44;14.02;;;8.80;;
21681;SDS011;11002;48.256;10.084;2023-01-29T04:22:14;14.90;;;8.25;;
21681;SDS011;11002;48.256;10.084;2023-01-29T04:24:45;12.48;;;8.38;;
21681;SDS011;11002;48.256;10.084;2023-01-29T04:27:24;14.63;;;9.02;;
21681;SDS011;11002;48.256;10.084;2023-01-29T04:30:10;11.18;;;8.43;;
21681;SDS011;11002;48.256;10.084;2023-01-29T04:32:53;11.23;;;8.55;;
21681;SDS011;11002;48.256;10.084;2023-01-29T04:35:30;11.68;;;8.45;;
21681;SDS011;11002;48.256;10.084;2023-01-29T04:38:05;14.35;;;9.05;;
21681;SDS011;11002;48.256;10.084;2023-01-29T04:40:42;10.32;;;7.72;;
21681;SDS011;11002;48.256;10.084;2023-01-29T04:43:20;11.30;;;7.88;;
21681;SDS011;11002;48.256;10.084;2023-01-29T04:45:55;12.13;;;8.32;;
21681;SDS011;11002;48.256;10.084;2023-01-29T04:48:34;12.20;;;8.38;;
21681;SDS011;11002;48.256;10.084;2023-01-29T04:51:11;10.15;;;8.07;;
21681;SDS011;11002;48.256;10.084;2023-01-29T04:53:46;11.77;;;7.65;;
21681;SDS011;11002;48.256;10.084;2023-01-29T04:56:17;12.98;;;8.52;;
21681;SDS011;11002;48.256;10.084;2023-01-29T04:58:52;10.95;;;8.07;;
21681;SDS011;11002;48.256;10.084;2023-01-29T05:01:22;11.27;;;8.27;;
21681;SDS011;11002;48.256;10.084;2023-01-29T05:03:54;16.15;;;8.85;;
21681;SDS011;11002;48.256;10.084;2023-01-29T05:06:24;11.32;;;8.55;;
21681;SDS011;11002;48.256;10.084;2023-01-29T05:08:52;11.52;;;8.43;;
21681;SDS011;11002;48.256;10.084;2023-01-29T05:11:21;11.25;;;8.25;;
21681;SDS011;11002;48.256;10.084;2023-01-29T05:13:50;10.73;;;8.25;;
21681;SDS011;11002;48.256;10.084;2023-01-29T05:16:18;14.23;;;9.80;;
21681;SDS011;11002;48.256;10.084;2023-01-29T05:18:49;24.77;;;13.23;;
21681;SDS011;11002;48.256;10.084;2023-01-29T05:21:17;27.73;;;15.07;;
21681;SDS011;11002;48.256;10.084;2023-01-29T05:23:46;49.13;;;23.58;;
21681;SDS011;11002;48.256;10.084;2023-01-29T05:26:32;51.97;;;26.30;;
21681;SDS011;11002;48.256;10.084;2023-01-29T05:29:18;15.40;;;10.23;;
21681;SDS011;11002;48.256;10.084;2023-01-29T05:31:46;13.20;;;9.10;;
21681;SDS011;11002;48.256;10.084;2023-01-29T05:34:13;12.57;;;9.15;;
21681;SDS011;11002;48.256;10.084;2023-01-29T05:36:40;12.05;;;8.63;;
21681;SDS011;11002;48.256;10.084;2023-01-29T05:39:09;11.80;;;8.43;;
21681;SDS011;11002;48.256;10.084;2023-01-29T05:41:36;10.98;;;8.18;;
21681;SDS011;11002;48.256;10.084;2023-01-29T05:44:04;11.88;;;8.45;;
21681;SDS011;11002;48.256;10.084;2023-01-29T05:46:31;12.63;;;7.93;;
21681;SDS011;11002;48.256;10.084;2023-01-29T05:48:59;11.35;;;8.73;;
21681;SDS011;11002;48.256;10.084;2023-01-29T05:51:26;10.65;;;8.02;;
21681;SDS011;11002;48.256;10.084;2023-01-29T05:53:53;12.88;;;8.50;;
21681;SDS011;11002;48.256;10.084;2023-01-29T05:56:22;12.10;;;8.93;;
21681;SDS011;11002;48.256;10.084;2023-01-29T05:58:50;13.32;;;8.35;;
21681;SDS011;11002;48.256;10.084;2023-01-29T06:01:18;13.48;;;8.68;;
21681;SDS011;11002;48.256;10.084;2023-01-29T06:03:47;12.32;;;8.55;;
21681;SDS011;11002;48.256;10.084;2023-01-29T06:06:15;12.65;;;9.27;;
21681;SDS011;11002;48.256;10.084;2023-01-29T06:08:43;11.95;;;8.65;;
21681;SDS011;11002;48.256;10.084;2023-01-29T06:11:11;11.15;;;8.63;;
21681;SDS011;11002;48.256;10.084;2023-01-29T06:13:42;14.23;;;9.32;;
21681;SDS011;11002;48.256;10.084;2023-01-29T06:16:10;13.32;;;9.35;;
21681;SDS011;11002;48.256;10.084;2023-01-29T06:18:38;11.65;;;8.95;;
21681;SDS011;11002;48.256;10.084;2023-01-29T06:21:07;12.02;;;8.35;;
21681;SDS011;11002;48.256;10.084;2023-01-29T06:23:36;10.80;;;8.40;;
21681;SDS011;11002;48.256;10.084;2023-01-29T06:26:04;12.90;;;8.75;;
21681;SDS011;11002;48.256;10.084;2023-01-29T06:28:33;11.68;;;8.82;;
21681;SDS011;11002;48.256;10.084;2023-01-29T06:31:03;12.50;;;8.43;;
21681;SDS011;11002;48.256;10.084;2023-01-29T06:33:31;11.40;;;8.63;;
21681;SDS011;11002;48.256;10.084;2023-01-29T06:35:59;11.18;;;8.30;;
21681;SDS011;11002;48.256;10.084;2023-01-29T06:38:27;12.48;;;9.18;;
21681;SDS011;11002;48.256;10.084;2023-01-29T06:40:56;12.98;;;8.35;;
21681;SDS011;11002;48.256;10.084;2023-01-29T06:43:23;15.45;;;9.25;;
21681;SDS011;11002;48.256;10.084;2023-01-29T06:45:51;12.82;;;8.98;;
21681;SDS011;11002;48.256;10.084;2023-01-29T06:48:21;12.68;;;8.70;;
21681;SDS011;11002;48.256;10.084;2023-01-29T06:50:49;15.60;;;10.18;;
21681;SDS011;11002;48.256;10.084;2023-01-29T06:53:19;14.43;;;9.77;;
21681;SDS011;11002;48.256;10.084;2023-01-29T06:55:49;15.55;;;9.75;;
21681;SDS011;11002;48.256;10.084;2023-01-29T06:58:17;13.02;;;10.02;;
21681;SDS011;11002;48.256;10.084;2023-01-29T07:00:45;13.00;;;9.63;;
21681;SDS011;11002;48.256;10.084;2023-01-29T07:03:12;12.70;;;9.10;;
21681;SDS011;11002;48.256;10.084;2023-01-29T07:05:41;14.88;;;10.50;;
21681;SDS011;11002;48.256;10.084;2023-01-29T07:08:08;24.92;;;14.07;;
21681;SDS011;11002;48.256;10.084;2023-01-29T07:10:36;16.92;;;11.68;;
21681;SDS011;11002;48.256;10.084;2023-01-29T07:13:03;20.30;;;13.40;;
21681;SDS011;11002;48.256;10.084;2023-01-29T07:15:30;12.65;;;8.57;;
21681;SDS011;11002;48.256;10.084;2023-01-29T07:17:58;23.30;;;16.15;;
21681;SDS011;11002;48.256;10.084;2023-01-29T07:20:27;11.20;;;8.70;;
21681;SDS011;11002;48.256;10.084;2023-01-29T07:22:56;12.55;;;9.25;;
21681;SDS011;11002;48.256;10.084;2023-01-29T07:25:24;13.85;;;9.63;;
21681;SDS011;11002;48.256;10.084;2023-01-29T07:27:51;16.48;;;10.50;;
21681;SDS011;11002;48.256;10.084;2023-01-29T07:30:19;11.73;;;8.23;;
21681;SDS011;11002;48.256;10.084;2023-01-29T07:32:46;7.00;;;5.50;;
21681;SDS011;11002;48.256;10.084;2023-01-29T07:35:14;7.45;;;5.57;;
21681;SDS011;11002;48.256;10.084;2023-01-29T07:37:41;7.68;;;6.07;;
21681;SDS011;11002;48.256;10.084;2023-01-29T07:40:11;7.05;;;5.82;;
21681;SDS011;11002;48.256;10.084;2023-01-29T07:42:38;9.13;;;5.75;;
21681;SDS011;11002;48.256;10.084;2023-01-29T07:45:09;8.68;;;6.05;;
21681;SDS011;11002;48.256;10.084;2023-01-29T07:47:38;8.68;;;5.72;;
21681;SDS011;11002;48.256;10.084;2023-01-29T07:50:06;50.60;;;21.88;;
21681;SDS011;11002;48.256;10.084;2023-01-29T07:52:34;11.93;;;8.23;;
21681;SDS011;11002;48.256;10.084;2023-01-29T07:55:01;9.23;;;7.05;;
21681;SDS011;11002;48.256;10.084;2023-01-29T07:57:30;16.02;;;10.02;;
21681;SDS011;11002;48.256;10.084;2023-01-29T07:59:57;8.70;;;6.43;;
21681;SDS011;11002;48.256;10.084;2023-01-29T08:02:25;9.57;;;6.90;;
21681;SDS011;11002;48.256;10.084;2023-01-29T08:04:52;10.75;;;7.20;;
21681;SDS011;11002;48.256;10.084;2023-01-29T08:07:19;13.30;;;8.85;;
21681;SDS011;11002;48.256;10.084;2023-01-29T08:09:47;13.55;;;6.72;;
21681;SDS011;11002;48.256;10.084;2023-01-29T08:12:14;6.95;;;5.57;;
21681;SDS011;11002;48.256;10.084;2023-01-29T08:14:43;8.45;;;5.97;;
21681;SDS011;11002;48.256;10.084;2023-01-29T08:17:11;9.68;;;6.18;;
21681;SDS011;11002;48.256;10.084;2023-01-29T08:19:39;8.60;;;6.55;;
21681;SDS011;11002;48.256;10.084;2023-01-29T08:22:06;10.32;;;7.03;;
21681;SDS011;11002;48.256;10.084;2023-01-29T08:24:36;16.92;;;11.65;;
21681;SDS011;11002;48.256;10.084;2023-01-29T08:27:04;9.77;;;6.75;;
21681;SDS011;11002;48.256;10.084;2023-01-29T08:29:31;12.73;;;7.30;;
21681;SDS011;11002;48.256;10.084;2023-01-29T08:32:00;8.65;;;6.63;;
21681;SDS011;11002;48.256;10.084;2023-01-29T08:34:27;8.35;;;6.10;;
21681;SDS011;11002;48.256;10.084;2023-01-29T08:36:54;8.60;;;6.93;;
21681;SDS011;11002;48.256;10.084;2023-01-29T08:39:22;12.13;;;6.95;;
21681;SDS011;11002;48.256;10.084;2023-01-29T08:41:49;12.38;;;7.95;;
21681;SDS011;11002;48.256;10.084;2023-01-29T08:44:16;11.38;;;7.93;;
21681;SDS011;11002;48.256;10.084;2023-01-29T08:46:44;9.88;;;7.00;;
21681;SDS011;11002;48.256;10.084;2023-01-29T08:49:13;8.98;;;6.57;;
21681;SDS011;11002;48.256;10.084;2023-01-29T08:51:40;9.23;;;6.57;;
21681;SDS011;11002;48.256;10.084;2023-01-29T08:54:07;8.60;;;6.57;;
21681;SDS011;11002;48.256;10.084;2023-01-29T08:56:35;9.05;;;6.75;;
21681;SDS011;11002;48.256;10.084;2023-01-29T08:59:02;11.73;;;7.82;;
21681;SDS011;11002;48.256;10.084;2023-01-29T09:01:29;13.20;;;8.30;;
21681;SDS011;11002;48.256;10.084;2023-01-29T09:03:57;10.65;;;7.85;;
21681;SDS011;11002;48.256;10.084;2023-01-29T09:06:25;9.75;;;7.72;;
21681;SDS011;11002;48.256;10.084;2023-01-29T09:08:53;9.43;;;7.13;;
21681;SDS011;11002;48.256;10.084;2023-01-29T09:11:20;13.07;;;7.82;;
21681;SDS011;11002;48.256;10.084;2023-01-29T09:13:49;9.68;;;7.38;;
21681;SDS011;11002;48.256;10.084;2023-01-29T09:16:17;11.18;;;7.97;;
21681;SDS011;11002;48.256;10.084;2023-01-29T09:18:44;12.35;;;8.48;;
21681;SDS011;11002;48.256;10.084;2023-01-29T09:21:11;10.13;;;7.53;;
21681;SDS011;11002;48.256;10.084;2023-01-29T09:23:40;10.20;;;7.30;;
21681;SDS011;11002;48.256;10.084;2023-01-29T09:26:07;11.10;;;8.07;;
21681;SDS011;11002;48.256;10.084;2023-01-29T09:28:35;10.88;;;7.30;;
21681;SDS011;11002;48.256;10.084;2023-01-29T09:31:02;9.45;;;7.20;;
21681;SDS011;11002;48.256;10.084;2023-01-29T09:33:30;9.13;;;6.95;;
21681;SDS011;11002;48.256;10.084;2023-01-29T09:35:57;10.15;;;7.40;;
21681;SDS011;11002;48.256;10.084;2023-01-29T09:38:25;12.45;;;7.32;;
21681;SDS011;11002;48.256;10.084;2023-01-29T09:40:56;10.48;;;7.30;;
21681;SDS011;11002;48.256;10.084;2023-01-29T09:43:32;9.60;;;7.15;;
21681;SDS011;11002;48.256;10.084;2023-01-29T09:46:11;9.57;;;7.43;;
21681;SDS011;11002;48.256;10.084;2023-01-29T09:48:44;9.68;;;7.68;;
21681;SDS011;11002;48.256;10.084;2023-01-29T09:51:15;9.43;;;7.15;;
21681;SDS011;11002;48.256;10.084;2023-01-29T09:53:52;8.30;;;7.22;;
21681;SDS011;11002;48.256;10.084;2023-01-29T09:56:25;10.63;;;7.20;;
21681;SDS011;11002;48.256;10.084;2023-01-29T09:58:55;8.45;;;6.55;;
21681;SDS011;11002;48.256;10.084;2023-01-29T10:01:26;8.70;;;6.82;;
21681;SDS011;11002;48.256;10.084;2023-01-29T10:04:16;8.45;;;6.45;;
21681;SDS011;11002;48.256;10.084;2023-01-29T10:07:04;9.50;;;6.35;;
21681;SDS011;11002;48.256;10.084;2023-01-29T10:12:41;11.13;;;6.55;;
21681;SDS011;11002;48.256;10.084;2023-01-29T10:15:32;8.27;;;6.50;;
21681;SDS011;11002;48.256;10.084;2023-01-29T10:18:26;14.75;;;8.57;;
21681;SDS011;11002;48.256;10.084;2023-01-29T10:21:18;12.02;;;8.07;;
21681;SDS011;11002;48.256;10.084;2023-01-29T10:26:27;9.07;;;6.57;;
21681;SDS011;11002;48.256;10.084;2023-01-29T10:28:56;8.35;;;7.03;;
21681;SDS011;11002;48.256;10.084;2023-01-29T10:31:28;10.52;;;7.85;;
21681;SDS011;11002;48.256;10.084;2023-01-29T10:33:58;10.65;;;8.32;;
21681;SDS011;11002;48.256;10.084;2023-01-29T10:36:32;9.60;;;7.53;;
21681;SDS011;11002;48.256;10.084;2023-01-29T10:39:01;11.50;;;8.20;;
21681;SDS011;11002;48.256;10.084;2023-01-29T10:41:34;9.93;;;7.60;;
21681;SDS011;11002;48.256;10.084;2023-01-29T10:44:19;10.55;;;7.50;;
21681;SDS011;11002;48.256;10.084;2023-01-29T10:46:59;16.35;;;9.35;;
21681;SDS011;11002;48.256;10.084;2023-01-29T10:49:43;11.07;;;8.02;;
21681;SDS011;11002;48.256;10.084;2023-01-29T10:52:22;8.10;;;6.65;;
21681;SDS011;11002;48.256;10.084;2023-01-29T10:55:08;10.52;;;7.72;;
21681;SDS011;11002;48.256;10.084;2023-01-29T10:57:56;9.23;;;7.20;;
21681;SDS011;11002;48.256;10.084;2023-01-29T11:00:34;10.07;;;7.82;;
21681;SDS011;11002;48.256;10.084;2023-01-29T11:03:10;9.65;;;7.63;;
21681;SDS011;11002;48.256;10.084;2023-01-29T11:05:42;11.05;;;7.63;;
21681;SDS011;11002;48.256;10.084;2023-01-29T11:08:16;10.98;;;7.93;;
21681;SDS011;11002;48.256;10.084;2023-01-29T11:10:48;11.27;;;8.10;;
21681;SDS011;11002;48.256;10.084;2023-01-29T11:13:20;10.48;;;7.82;;
21681;SDS011;11002;48.256;10.084;2023-01-29T11:15:51;9.13;;;7.47;;
21681;SDS011;11002;48.256;10.084;2023-01-29T11:18:19;11.38;;;7.55;;
21681;SDS011;11002;48.256;10.084;2023-01-29T11:20:46;11.98;;;8.82;;
21681;SDS011;11002;48.256;10.084;2023-01-29T11:23:27;12.50;;;9.32;;
21681;SDS011;11002;48.256;10.084;2023-01-29T11:25:57;13.02;;;8.80;;
21681;SDS011;11002;48.256;10.084;2023-01-29T11:28:36;12.23;;;8.38;;
21681;SDS011;11002;48.256;10.084;2023-01-29T11:31:16;12.27;;;9.15;;
21681;SDS011;11002;48.256;10.084;2023-01-29T11:33:46;18.02;;;10.68;;
21681;SDS011;11002;48.256;10.084;2023-01-29T11:36:20;14.90;;;9.65;;
21681;SDS011;11002;48.256;10.084;2023-01-29T11:39:04;12.20;;;8.43;;
21681;SDS011;11002;48.256;10.084;2023-01-29T11:41:41;15.30;;;10.38;;
21681;SDS011;11002;48.256;10.084;2023-01-29T11:44:16;12.75;;;9.60;;
21681;SDS011;11002;48.256;10.084;2023-01-29T11:46:46;14.77;;;11.35;;
21681;SDS011;11002;48.256;10.084;2023-01-29T11:49:20;14.07;;;10.38;;
21681;SDS011;11002;48.256;10.084;2023-01-29T11:51:53;14.10;;;10.13;;
21681;SDS011;11002;48.256;10.084;2023-01-29T11:54:21;14.05;;;9.85;;
21681;SDS011;11002;48.256;10.084;2023-01-29T11:56:54;11.80;;;8.65;;
21681;SDS011;11002;48.256;10.084;2023-01-29T11:59:28;13.52;;;9.30;;
21681;SDS011;11002;48.256;10.084;2023-01-29T12:02:06;12.35;;;9.60;;
21681;SDS011;11002;48.256;10.084;2023-01-29T12:04:46;12.93;;;9.48;;
21681;SDS011;11002;48.256;10.084;2023-01-29T12:07:15;12.10;;;9.25;;
21681;SDS011;11002;48.256;10.084;2023-01-29T12:09:48;12.40;;;8.50;;
21681;SDS011;11002;48.256;10.084;2023-01-29T12:15:04;11.10;;;8.45;;
21681;SDS011;11002;48.256;10.084;2023-01-29T12:17:47;12.20;;;8.68;;
21681;SDS011;11002;48.256;10.084;2023-01-29T12:20:22;13.50;;;9.43;;
21681;SDS011;11002;48.256;10.084;2023-01-29T12:22:56;15.43;;;10.73;;
21681;SDS011;11002;48.256;10.084;2023-01-29T12:25:35;15.85;;;11.32;;
21681;SDS011;11002;48.256;10.084;2023-01-29T12:28:14;16.52;;;11.35;;
21681;SDS011;11002;48.256;10.084;2023-01-29T12:30:51;15.43;;;10.27;;
21681;SDS011;11002;48.256;10.084;2023-01-29T12:33:32;14.38;;;10.77;;
21681;SDS011;11002;48.256;10.084;2023-01-29T12:36:06;18.85;;;11.88;;
21681;SDS011;11002;48.256;10.084;2023-01-29T12:38:39;17.75;;;11.32;;
21681;SDS011;11002;48.256;10.084;2023-01-29T12:41:13;21.40;;;13.48;;
21681;SDS011;11002;48.256;10.084;2023-01-29T12:43:51;21.23;;;13.60;;
21681;SDS011;11002;48.256;10.084;2023-01-29T12:46:23;19.38;;;11.93;;
21681;SDS011;11002;48.256;10.084;2023-01-29T12:48:55;17.38;;;12.10;;
21681;SDS011;11002;48.256;10.084;2023-01-29T12:51:28;20.80;;;12.48;;
21681;SDS011;11002;48.256;10.084;2023-01-29T12:54:01;17.00;;;11.88;;
21681;SDS011;11002;48.256;10.084;2023-01-29T12:56:33;18.00;;;12.77;;
21681;SDS011;11002;48.256;10.084;2023-01-29T12:59:05;19.60;;;13.82;;
21681;SDS011;11002;48.256;10.084;2023-01-29T13:01:45;20.02;;;13.50;;
21681;SDS011;11002;48.256;10.084;2023-01-29T13:04:18;18.88;;;12.93;;
21681;SDS011;11002;48.256;10.084;2023-01-29T13:06:55;17.33;;;12.45;;
21681;SDS011;11002;48.256;10.084;2023-01-29T13:09:30;17.95;;;11.75;;
21681;SDS011;11002;48.256;10.084;2023-01-29T13:12:01;17.15;;;11.77;;
21681;SDS011;11002;48.256;10.084;2023-01-29T13:14:32;16.08;;;11.10;;
21681;SDS011;11002;48.256;10.084;2023-01-29T13:17:08;16.50;;;11.70;;
21681;SDS011;11002;48.256;10.084;2023-01-29T13:19:41;16.15;;;10.93;;
21681;SDS011;11002;48.256;10.084;2023-01-29T13:22:14;19.70;;;12.63;;
21681;SDS011;11002;48.256;10.084;2023-01-29T13:24:45;18.88;;;13.25;;
21681;SDS011;11002;48.256;10.084;2023-01-29T13:27:15;19.45;;;12.93;;
21681;SDS011;11002;48.256;10.084;2023-01-29T13:29:47;22.85;;;13.05;;
21681;SDS011;11002;48.256;10.084;2023-01-29T13:32:18;16.65;;;11.75;;
21681;SDS011;11002;48.256;10.084;2023-01-29T13:34:50;18.08;;;12.40;;
21681;SDS011;11002;48.256;10.084;2023-01-29T13:37:23;17.30;;;10.98;;
21681;SDS011;11002;48.256;10.084;2023-01-29T13:39:55;14.30;;;10.15;;
21681;SDS011;11002;48.256;10.084;2023-01-29T13:42:24;14.00;;;9.77;;
21681;SDS011;11002;48.256;10.084;2023-01-29T13:45:01;15.93;;;10.18;;
21681;SDS011;11002;48.256;10.084;2023-01-29T13:47:31;13.43;;;9.65;;
21681;SDS011;11002;48.256;10.084;2023-01-29T13:50:03;14.65;;;10.00;;
21681;SDS011;11002;48.256;10.084;2023-01-29T13:52:34;14.90;;;9.80;;
21681;SDS011;11002;48.256;10.084;2023-01-29T13:55:05;15.02;;;10.55;;
21681;SDS011;11002;48.256;10.084;2023-01-29T13:57:36;14.95;;;10.93;;
21681;SDS011;11002;48.256;10.084;2023-01-29T14:15:15;14.77;;;9.68;;
21681;SDS011;11002;48.256;10.084;2023-01-29T14:20:51;14.15;;;10.27;;
21681;SDS011;11002;48.256;10.084;2023-01-29T14:23:28;14.40;;;9.82;;
21681;SDS011;11002;48.256;10.084;2023-01-29T14:25:58;14.02;;;9.60;;
21681;SDS011;11002;48.256;10.084;2023-01-29T14:28:30;11.98;;;9.15;;
21681;SDS011;11002;48.256;10.084;2023-01-29T14:30:59;14.25;;;9.13;;
21681;SDS011;11002;48.256;10.084;2023-01-29T14:33:31;15.52;;;8.65;;
21681;SDS011;11002;48.256;10.084;2023-01-29T14:36:05;13.93;;;9.27;;
21681;SDS011;11002;48.256;10.084;2023-01-29T14:38:37;12.07;;;8.02;;
21681;SDS011;11002;48.256;10.084;2023-01-29T14:41:11;11.95;;;8.43;;
21681;SDS011;11002;48.256;10.084;2023-01-29T14:43:44;12.38;;;8.27;;
21681;SDS011;11002;48.256;10.084;2023-01-29T14:49:08;12.80;;;8.88;;
21681;SDS011;11002;48.256;10.084;2023-01-29T14:51:35;14.07;;;8.90;;
21681;SDS011;11002;48.256;10.084;2023-01-29T14:54:14;13.95;;;9.75;;
21681;SDS011;11002;48.256;10.084;2023-01-29T14:56:51;12.50;;;9.20;;
21681;SDS011;11002;48.256;10.084;2023-01-29T14:59:27;16.80;;;10.63;;
21681;SDS011;11002;48.256;10.084;2023-01-29T15:01:59;12.73;;;8.90;;
21681;SDS011;11002;48.256;10.084;2023-01-29T15:04:31;12.27;;;8.55;;
21681;SDS011;11002;48.256;10.084;2023-01-29T15:07:05;12.90;;;8.52;;
21681;SDS011;11002;48.256;10.084;2023-01-29T15:09:46;13.48;;;8.98;;
21681;SDS011;11002;48.256;10.084;2023-01-29T15:12:17;13.18;;;9.50;;
21681;SDS011;11002;48.256;10.084;2023-01-29T15:14:55;12.48;;;9.32;;
21681;SDS011;11002;48.256;10.084;2023-01-29T15:17:29;12.38;;;9.05;;
21681;SDS011;11002;48.256;10.084;2023-01-29T15:20:04;12.57;;;8.43;;
21681;SDS011;11002;48.256;10.084;2023-01-29T15:22:54;12.80;;;8.88;;
21681;SDS011;11002;48.256;10.084;2023-01-29T15:25:23;14.50;;;8.98;;
21681;SDS011;11002;48.256;10.084;2023-01-29T15:27:50;14.25;;;8.88;;